Atlanta/Hartsfield-Jackson International

Airport
ICAO code: 
KATL
IATA Code: 
ATL
Summary
ICAO Region: 
NAM
Territory: 
Location: 
Atlanta, Georgia
Serving: 
Atlanta
Elevation: 
1026 ft
Coordinates: 
Aerial View: 
33° 38' 25.161" N, 84° 25' 37.969" W
Airport LOS: 
Parallel Runway Operation
Metar
Observation
KATL 080833Z 08005KT 5SM TS BR BKN008CB BKN013 OVC046 07/06 A2997 RMK AO2 RAE33 TSB02 OCNL LTGICCG NE-SE-S TS NE-SE-S MOV NE P0039 T00720061 $
Station
Atlanta, Hartsfield - Jackson Atlanta International Airport
Date/Time
2021-12-08 08:33:00
Wind direction
80°
Wind speed
05 kts
Lowest cloud amount
broken clouds
Temperature
7.2°C
Dew point
6.1°C
Humidity
92%
Weather condition
thunderstorm

Description

International airport serving Atlanta, Georgia.

Climatology

Humid “subtropical” climate (Köppen climate classification Cfa) - characterized by hot, humid summers and cool winters. Significant amounts of precipitation occur in all seasons in most areas. Winter rainfall (and sometimes snowfall) is associated with large storms that the westerlies steer from west to east. Most summer rainfall occurs during thunderstorms and occasional tropical storms (hurricanes).

Runways

Designator Length Width Surface Rops
08L/26R 2743 46 CON Yes/Yes
10/28 2743 46 CON Yes/Yes
09R/27L 2744 46 CON Yes/Yes
08R/26L 3048 46 CON Yes/Yes
09L/27R 3624 46 CON Yes/Yes
Airport map: 
Aerial View: 

SKYbrary Partners:

Safety knowledge contributed by: